createdAt,value
2024-05-09T00:00:43.241Z,9.20
2024-05-09T00:03:11.920Z,9.20
2024-05-09T00:05:43.643Z,9.21
2024-05-09T00:08:11.842Z,9.21
2024-05-09T00:10:40.951Z,9.18
2024-05-09T00:13:09.748Z,9.13
2024-05-09T00:15:37.680Z,9.08
2024-05-09T00:18:06.637Z,9.05
2024-05-09T00:20:39.000Z,9.02
2024-05-09T00:23:10.212Z,9.01
2024-05-09T00:25:38.004Z,8.99
2024-05-09T00:28:06.316Z,8.99
2024-05-09T00:30:36.224Z,9.02
2024-05-09T00:33:09.394Z,9.02
2024-05-09T00:35:38.523Z,8.99
2024-05-09T00:38:06.622Z,8.94
2024-05-09T00:40:41.507Z,8.91
2024-05-09T00:43:12.216Z,8.88
2024-05-09T00:45:40.686Z,8.85
2024-05-09T00:48:09.658Z,8.84
2024-05-09T00:50:40.369Z,8.82
2024-05-09T00:53:08.395Z,8.81
2024-05-09T00:55:35.856Z,8.79
2024-05-09T00:58:03.658Z,8.77
2024-05-09T01:00:37.968Z,8.74
2024-05-09T01:03:09.744Z,8.72
2024-05-09T01:05:39.705Z,8.71
2024-05-09T01:08:07.890Z,8.69
2024-05-09T01:10:36.635Z,8.67
2024-05-09T01:13:05.424Z,8.66
2024-05-09T01:15:33.362Z,8.64
2024-05-09T01:18:12.221Z,8.63
2024-05-09T01:20:44.752Z,8.65
2024-05-09T01:23:15.107Z,8.65
2024-05-09T01:25:44.810Z,8.64
2024-05-09T01:28:12.749Z,8.59
2024-05-09T01:30:40.328Z,8.53
2024-05-09T01:33:09.792Z,8.47
2024-05-09T01:35:40.834Z,8.39
2024-05-09T01:38:11.952Z,8.30
2024-05-09T01:40:40.390Z,8.22
2024-05-09T01:43:09.341Z,8.12
2024-05-09T01:45:38.528Z,8.01
2024-05-09T01:48:06.855Z,7.93
2024-05-09T01:50:39.481Z,7.84
2024-05-09T01:53:10.568Z,7.73
2024-05-09T01:55:38.499Z,7.62
2024-05-09T01:58:06.250Z,7.53
2024-05-09T02:00:39.427Z,7.46
2024-05-09T02:03:12.723Z,7.36
2024-05-09T02:05:43.683Z,7.28
2024-05-09T02:08:19.363Z,7.20
2024-05-09T02:10:48.163Z,7.12
2024-05-09T02:13:16.438Z,7.04
2024-05-09T02:15:44.088Z,6.98
2024-05-09T02:18:12.165Z,6.93
2024-05-09T02:20:41.164Z,6.91
2024-05-09T02:23:09.436Z,6.89
2024-05-09T02:25:37.272Z,6.84
2024-05-09T02:28:05.495Z,6.80
2024-05-09T02:30:39.811Z,6.77
2024-05-09T02:33:11.680Z,6.72
2024-05-09T02:38:09.305Z,6.67
2024-05-09T02:40:39.438Z,6.64
2024-05-09T02:43:08.411Z,6.61
2024-05-09T02:45:37.199Z,6.57
2024-05-09T02:48:05.551Z,6.53
2024-05-09T02:50:38.345Z,6.50
2024-05-09T02:53:08.619Z,6.49
2024-05-09T02:55:37.768Z,6.47
2024-05-09T02:58:06.998Z,6.47
2024-05-09T03:00:39.177Z,6.47
2024-05-09T03:03:14.751Z,6.48
2024-05-09T03:05:44.065Z,6.49
2024-05-09T03:08:11.934Z,6.50
2024-05-09T03:10:39.894Z,6.50
2024-05-09T03:13:08.394Z,6.48
2024-05-09T03:15:36.546Z,6.48
2024-05-09T03:18:05.651Z,6.47
2024-05-09T03:20:35.484Z,6.47
2024-05-09T03:23:05.481Z,6.49
2024-05-09T03:25:33.939Z,6.51
2024-05-09T03:28:01.665Z,6.55
2024-05-09T03:30:36.277Z,6.59
2024-05-09T03:33:13.812Z,6.61
2024-05-09T03:35:43.602Z,6.64
2024-05-09T03:38:11.221Z,6.66
2024-05-09T03:40:47.107Z,6.69
2024-05-09T03:43:14.637Z,6.73
2024-05-09T03:45:45.247Z,6.76
2024-05-09T03:48:13.116Z,6.79
2024-05-09T03:50:41.052Z,6.83
2024-05-09T03:53:12.912Z,6.87
2024-05-09T03:55:40.549Z,6.90
2024-05-09T03:58:08.526Z,6.97
2024-05-09T04:00:38.987Z,7.03
2024-05-09T04:03:10.290Z,7.08
2024-05-09T04:05:45.681Z,7.14
2024-05-09T04:08:14.649Z,7.16
2024-05-09T04:10:42.519Z,7.19
2024-05-09T04:13:10.307Z,7.22
2024-05-09T04:15:38.419Z,7.26
2024-05-09T04:18:06.216Z,7.28
2024-05-09T04:20:38.751Z,7.31
2024-05-09T04:23:13.388Z,7.31
2024-05-09T04:25:41.854Z,7.44
2024-05-09T04:28:09.281Z,7.53
2024-05-09T04:30:39.705Z,7.62
2024-05-09T04:33:11.832Z,7.69
2024-05-09T04:35:42.623Z,7.75
2024-05-09T04:38:10.965Z,7.84
2024-05-09T04:40:38.649Z,7.92
2024-05-09T04:43:06.870Z,7.99
2024-05-09T04:45:35.162Z,8.06
2024-05-09T04:48:03.370Z,8.13
2024-05-09T04:50:36.837Z,8.22
2024-05-09T04:53:08.674Z,8.36
2024-05-09T04:55:37.672Z,8.46
2024-05-09T04:58:08.361Z,8.52
2024-05-09T05:00:38.737Z,8.55
2024-05-09T05:03:10.072Z,8.57
2024-05-09T05:05:42.716Z,8.58
2024-05-09T05:08:19.862Z,8.60
2024-05-09T05:10:48.541Z,8.62
2024-05-09T05:13:19.978Z,8.64
2024-05-09T05:15:50.387Z,8.67
2024-05-09T05:18:17.936Z,8.69
2024-05-09T05:20:46.107Z,8.73
2024-05-09T05:23:15.917Z,8.81
2024-05-09T05:25:43.614Z,8.91
2024-05-09T05:28:11.398Z,9.04
2024-05-09T05:33:06.543Z,9.24
2024-05-09T05:35:34.782Z,9.32
2024-05-09T05:38:03.407Z,9.40
2024-05-09T05:40:36.379Z,9.48
2024-05-09T05:43:06.037Z,9.57
2024-05-09T05:45:33.595Z,9.66
2024-05-09T05:48:03.384Z,9.71
2024-05-09T05:50:35.921Z,9.73
2024-05-09T05:53:06.396Z,9.86
2024-05-09T05:55:34.040Z,9.96
2024-05-09T05:58:02.291Z,10.07
2024-05-09T06:00:37.513Z,10.15
2024-05-09T06:03:08.469Z,10.24
2024-05-09T06:05:36.756Z,10.34
2024-05-09T06:08:04.981Z,10.43
2024-05-09T06:10:38.165Z,10.51
2024-05-09T06:13:10.694Z,10.54
2024-05-09T06:15:39.019Z,10.60
2024-05-09T06:18:07.658Z,10.68
2024-05-09T06:20:37.844Z,10.75
2024-05-09T06:23:06.764Z,10.82
2024-05-09T06:25:35.822Z,10.90
2024-05-09T06:28:03.738Z,10.97
2024-05-09T06:30:38.659Z,11.04
2024-05-09T06:33:10.249Z,11.14
2024-05-09T06:35:39.256Z,11.21
2024-05-09T06:38:09.186Z,11.23
2024-05-09T06:40:41.026Z,11.23
2024-05-09T06:43:14.312Z,11.27
2024-05-09T06:45:42.204Z,11.32
2024-05-09T06:48:10.160Z,11.38
2024-05-09T06:50:39.746Z,11.47
2024-05-09T06:53:08.456Z,11.60
2024-05-09T06:55:36.768Z,11.70
2024-05-09T06:58:05.528Z,11.76
2024-05-09T07:00:38.941Z,11.92
2024-05-09T07:03:09.973Z,12.00
2024-05-09T07:05:38.068Z,12.08
2024-05-09T07:08:06.475Z,12.16
2024-05-09T07:10:35.952Z,12.23
2024-05-09T07:13:14.780Z,12.27
2024-05-09T07:15:42.692Z,12.30
2024-05-09T07:18:19.971Z,12.33
2024-05-09T07:20:49.015Z,12.41
2024-05-09T07:23:17.464Z,12.51
2024-05-09T07:25:45.578Z,12.60
2024-05-09T07:28:16.419Z,12.71
2024-05-09T07:30:44.345Z,12.84
2024-05-09T07:33:23.177Z,12.98
2024-05-09T07:35:52.354Z,13.06
2024-05-09T07:38:20.123Z,13.11
2024-05-09T07:40:48.037Z,13.16
2024-05-09T07:43:15.780Z,13.23
2024-05-09T07:45:51.959Z,13.33
2024-05-09T07:52:38.954Z,13.59
2024-05-09T07:53:47.404Z,13.72
2024-05-09T07:56:20.274Z,13.82
2024-05-09T07:58:50.257Z,13.87
2024-05-09T08:01:18.006Z,13.97
2024-05-09T08:03:45.979Z,14.06
2024-05-09T08:06:13.873Z,14.11
2024-05-09T08:08:41.370Z,14.21
2024-05-09T08:11:08.862Z,14.37
2024-05-09T08:13:37.028Z,14.55
2024-05-09T08:16:05.244Z,14.71
2024-05-09T08:18:33.155Z,14.84
2024-05-09T08:21:00.857Z,14.94
2024-05-09T08:23:28.764Z,15.03
2024-05-09T08:25:56.368Z,15.16
2024-05-09T08:28:23.783Z,15.31
2024-05-09T08:30:51.668Z,15.43
2024-05-09T08:33:19.294Z,15.46
2024-05-09T08:35:46.830Z,15.50
2024-05-09T08:38:14.305Z,15.57
2024-05-09T08:40:41.993Z,15.69
2024-05-09T08:43:11.554Z,15.83
2024-05-09T08:45:43.984Z,15.93
2024-05-09T08:48:14.755Z,16.06
2024-05-09T08:50:44.243Z,16.20
2024-05-09T08:53:12.800Z,16.26
2024-05-09T08:55:43.170Z,16.24
2024-05-09T08:58:15.378Z,16.24
2024-05-09T09:00:43.733Z,16.23
2024-05-09T09:03:14.071Z,16.34
2024-05-09T09:05:42.177Z,16.40
2024-05-09T09:08:09.667Z,16.43
2024-05-09T09:10:37.938Z,16.48
2024-05-09T09:13:09.431Z,16.50
2024-05-09T09:15:47.866Z,16.41
2024-05-09T09:18:16.129Z,16.34
2024-05-09T09:20:44.398Z,16.32
2024-05-09T09:23:11.933Z,16.35
2024-05-09T09:25:40.394Z,16.38
2024-05-09T09:28:08.188Z,16.46
2024-05-09T09:30:42.711Z,16.58
2024-05-09T09:33:10.963Z,16.71
2024-05-09T09:35:41.754Z,16.85
2024-05-09T09:38:10.265Z,16.98
2024-05-09T09:40:43.018Z,17.10
2024-05-09T09:43:15.708Z,17.23
2024-05-09T09:45:43.853Z,17.36
2024-05-09T09:48:11.986Z,17.40
2024-05-09T09:50:39.728Z,17.44
2024-05-09T09:53:07.638Z,17.49
2024-05-09T09:55:35.071Z,17.47
2024-05-09T09:58:02.643Z,17.35
2024-05-09T10:00:33.125Z,17.19
2024-05-09T10:03:02.165Z,17.07
2024-05-09T10:05:30.287Z,17.03
2024-05-09T10:07:58.109Z,17.03
2024-05-09T10:10:32.064Z,17.17
2024-05-09T10:13:04.046Z,17.46
2024-05-09T10:15:51.837Z,17.85
2024-05-09T10:18:27.131Z,18.25
2024-05-09T10:20:57.097Z,18.58
2024-05-09T10:23:29.012Z,18.89
2024-05-09T10:26:00.944Z,19.15
2024-05-09T10:28:32.611Z,19.37
2024-05-09T10:31:10.881Z,19.43
2024-05-09T10:33:51.183Z,19.51
2024-05-09T10:36:19.688Z,19.53
2024-05-09T10:38:48.341Z,19.43
2024-05-09T10:41:19.673Z,19.33
2024-05-09T10:43:47.713Z,19.47
2024-05-09T10:46:15.370Z,19.82
2024-05-09T10:48:43.345Z,20.19
2024-05-09T10:51:11.031Z,20.48
2024-05-09T10:53:45.366Z,20.49
2024-05-09T10:56:14.197Z,20.32
2024-05-09T10:58:41.923Z,20.05
2024-05-09T11:01:09.719Z,19.88
2024-05-09T11:03:38.807Z,19.99
2024-05-09T11:06:07.042Z,20.34
2024-05-09T11:08:34.699Z,20.72
2024-05-09T11:11:04.734Z,20.98
2024-05-09T11:13:38.958Z,21.23
2024-05-09T11:16:16.034Z,21.38
2024-05-09T11:18:43.966Z,21.21
2024-05-09T11:21:14.640Z,20.92
2024-05-09T11:23:42.103Z,20.68
2024-05-09T11:26:10.894Z,20.70
2024-05-09T11:28:38.516Z,21.04
2024-05-09T11:31:10.596Z,21.45
2024-05-09T11:33:39.470Z,21.62
2024-05-09T11:36:07.806Z,21.49
2024-05-09T11:38:35.280Z,21.13
2024-05-09T11:41:03.513Z,20.66
2024-05-09T11:43:31.214Z,20.29
2024-05-09T11:45:59.875Z,20.16
2024-05-09T11:48:27.760Z,20.27
2024-05-09T11:50:56.642Z,20.57
2024-05-09T11:53:24.162Z,20.81
2024-05-09T11:55:51.661Z,20.97
2024-05-09T11:58:21.337Z,21.15
2024-05-09T12:00:49.109Z,21.47
2024-05-09T12:03:16.741Z,21.75
2024-05-09T12:05:44.440Z,22.23
2024-05-09T12:08:12.199Z,22.74
2024-05-09T12:10:39.704Z,23.16
2024-05-09T12:13:07.740Z,23.53
2024-05-09T12:15:37.555Z,23.57
2024-05-09T12:18:06.981Z,23.66
2024-05-09T12:20:38.204Z,23.77
2024-05-09T12:23:09.599Z,23.81
2024-05-09T12:25:38.855Z,24.05
2024-05-09T12:28:10.100Z,24.42
2024-05-09T12:30:40.192Z,24.57
2024-05-09T12:33:13.038Z,24.33
2024-05-09T12:35:44.080Z,23.91
2024-05-09T12:38:14.760Z,23.55
2024-05-09T12:40:42.839Z,23.23
2024-05-09T12:43:12.074Z,23.06
2024-05-09T12:45:40.320Z,23.19
2024-05-09T12:48:11.331Z,23.64
2024-05-09T12:50:39.986Z,24.12
2024-05-09T12:53:07.540Z,24.60
2024-05-09T12:55:43.888Z,25.04
2024-05-09T12:58:17.667Z,25.40
2024-05-09T13:00:45.615Z,25.54
2024-05-09T13:03:13.477Z,25.31
2024-05-09T13:05:41.814Z,25.33
2024-05-09T13:08:09.934Z,25.71
2024-05-09T13:10:37.378Z,25.99
2024-05-09T13:13:05.093Z,26.07
2024-05-09T13:15:34.444Z,25.96
2024-05-09T13:18:03.511Z,25.64
2024-05-09T13:20:34.323Z,25.35
2024-05-09T13:23:04.853Z,25.00
2024-05-09T13:25:34.209Z,24.76
2024-05-09T13:28:02.436Z,24.62
2024-05-09T13:30:38.542Z,24.26
2024-05-09T13:33:11.262Z,23.82
2024-05-09T13:35:45.493Z,23.41
2024-05-09T13:38:17.808Z,22.95
2024-05-09T13:40:45.578Z,22.62
2024-05-09T13:43:13.631Z,22.30
2024-05-09T13:45:41.155Z,21.79
2024-05-09T13:48:10.114Z,21.34
2024-05-09T13:50:38.990Z,21.09
2024-05-09T13:53:07.798Z,20.92
2024-05-09T13:55:40.050Z,20.86
2024-05-09T13:58:08.646Z,20.86
2024-05-09T14:00:44.950Z,20.86
2024-05-09T14:03:17.469Z,20.71
2024-05-09T14:05:46.925Z,20.52
2024-05-09T14:08:15.353Z,20.51
2024-05-09T14:10:46.207Z,20.57
2024-05-09T14:13:14.558Z,20.59
2024-05-09T14:15:42.154Z,20.62
2024-05-09T14:18:12.520Z,20.61
2024-05-09T14:20:42.176Z,20.53
2024-05-09T14:23:10.100Z,20.29
2024-05-09T14:25:41.867Z,20.08
2024-05-09T14:28:11.962Z,20.09
2024-05-09T14:30:40.103Z,20.17
2024-05-09T14:33:09.611Z,20.17
2024-05-09T14:35:38.595Z,20.14
2024-05-09T14:38:07.072Z,20.27
2024-05-09T14:40:41.386Z,20.45
2024-05-09T14:43:15.170Z,20.71
2024-05-09T14:45:44.107Z,20.87
2024-05-09T14:48:14.539Z,21.00
2024-05-09T14:50:42.310Z,21.15
2024-05-09T14:53:10.715Z,21.23
2024-05-09T14:55:39.046Z,21.35
2024-05-09T14:58:07.658Z,21.54
2024-05-09T15:00:39.189Z,21.57
2024-05-09T15:03:10.263Z,21.63
2024-05-09T15:05:37.774Z,21.67
2024-05-09T15:08:08.953Z,21.62
2024-05-09T15:10:37.786Z,21.64
2024-05-09T15:13:07.213Z,21.87
2024-05-09T15:15:36.838Z,22.23
2024-05-09T15:18:05.843Z,22.73
2024-05-09T15:20:36.494Z,23.41
2024-05-09T15:23:06.447Z,23.93
2024-05-09T15:25:34.907Z,24.15
2024-05-09T15:28:02.526Z,23.98
2024-05-09T15:30:32.702Z,23.68
2024-05-09T15:33:05.326Z,23.25
2024-05-09T15:35:34.120Z,22.81
2024-05-09T15:38:02.908Z,22.32
2024-05-09T15:40:37.774Z,21.71
2024-05-09T15:43:08.844Z,21.32
2024-05-09T15:45:37.462Z,21.05
2024-05-09T15:48:06.002Z,20.76
2024-05-09T15:50:38.820Z,20.40
2024-05-09T15:53:10.199Z,20.03
2024-05-09T15:55:38.559Z,19.73
2024-05-09T15:58:07.135Z,19.48
2024-05-09T16:00:39.338Z,19.28
2024-05-09T16:03:10.648Z,19.12
2024-05-09T16:05:38.744Z,18.98
2024-05-09T16:08:07.299Z,18.78
2024-05-09T16:10:35.412Z,18.60
2024-05-09T16:13:04.432Z,18.46
2024-05-09T16:15:32.193Z,18.32
2024-05-09T16:18:00.491Z,18.21
2024-05-09T16:20:37.356Z,18.11
2024-05-09T16:23:08.311Z,18.02
2024-05-09T16:25:36.447Z,17.97
2024-05-09T16:28:08.595Z,17.91
2024-05-09T16:30:39.271Z,17.80
2024-05-09T16:33:07.142Z,17.72
2024-05-09T16:35:35.256Z,17.66
2024-05-09T16:38:03.123Z,17.62
2024-05-09T16:40:37.720Z,17.56
2024-05-09T16:43:09.188Z,17.48
2024-05-09T16:45:37.662Z,17.37
2024-05-09T16:48:06.432Z,17.36
2024-05-09T16:50:35.581Z,17.27
2024-05-09T16:53:04.902Z,17.20
2024-05-09T16:55:33.395Z,17.11
2024-05-09T16:58:01.193Z,16.94
2024-05-09T17:00:38.395Z,16.72
2024-05-09T17:03:15.096Z,16.48
2024-05-09T17:05:45.690Z,16.27
2024-05-09T17:08:15.098Z,16.08
2024-05-09T17:10:42.750Z,15.88
2024-05-09T17:13:10.369Z,15.70
2024-05-09T17:15:37.983Z,15.53
2024-05-09T17:18:07.531Z,15.37
2024-05-09T17:20:37.366Z,15.21
2024-05-09T17:23:12.229Z,15.07
2024-05-09T17:25:40.076Z,14.92
2024-05-09T17:28:08.504Z,14.79
2024-05-09T17:30:38.339Z,14.64
2024-05-09T17:33:08.700Z,14.44
2024-05-09T17:35:37.175Z,14.26
2024-05-09T17:38:05.891Z,14.12
2024-05-09T17:40:36.347Z,14.00
2024-05-09T17:43:07.686Z,13.86
2024-05-09T17:45:38.121Z,13.77
2024-05-09T17:50:20.925Z,13.62
2024-05-09T17:52:54.178Z,13.51
2024-05-09T17:55:21.728Z,13.38
2024-05-09T17:57:49.876Z,13.28
2024-05-09T18:00:28.640Z,13.19
2024-05-09T18:03:04.629Z,13.08
2024-05-09T18:05:32.289Z,12.99
2024-05-09T18:08:00.299Z,12.90
2024-05-09T18:10:35.178Z,12.80
2024-05-09T18:13:06.747Z,12.71
2024-05-09T18:15:34.862Z,12.64
2024-05-09T18:18:03.425Z,12.55
2024-05-09T18:20:40.745Z,12.45
2024-05-09T18:23:16.266Z,12.35
2024-05-09T18:25:45.798Z,12.25
2024-05-09T18:28:13.504Z,12.15
2024-05-09T18:30:41.329Z,12.06
2024-05-09T18:33:10.385Z,11.98
2024-05-09T18:35:38.411Z,11.89
2024-05-09T18:38:06.042Z,11.84
2024-05-09T18:40:36.649Z,11.81
2024-05-09T18:43:07.518Z,11.80
2024-05-09T18:45:37.878Z,11.74
2024-05-09T18:48:08.246Z,11.64
2024-05-09T18:50:39.204Z,11.55
2024-05-09T18:53:09.906Z,11.47
2024-05-09T18:55:37.691Z,11.38
2024-05-09T18:58:05.444Z,11.31
2024-05-09T19:00:36.622Z,11.23
2024-05-09T19:03:09.439Z,11.09
2024-05-09T19:05:39.502Z,10.96
2024-05-09T19:08:08.655Z,10.85
2024-05-09T19:10:39.989Z,10.78
2024-05-09T19:13:11.821Z,10.71
2024-05-09T19:15:43.110Z,10.69
2024-05-09T19:18:15.113Z,10.67
2024-05-09T19:20:43.657Z,10.64
2024-05-09T19:23:11.324Z,10.60
2024-05-09T19:25:38.919Z,10.55
2024-05-09T19:28:06.942Z,10.50
2024-05-09T19:30:39.997Z,10.43
2024-05-09T19:33:12.394Z,10.35
2024-05-09T19:35:41.880Z,10.29
2024-05-09T19:38:09.313Z,10.23
2024-05-09T19:40:37.042Z,10.17
2024-05-09T19:43:05.963Z,10.13
2024-05-09T19:45:35.041Z,10.08
2024-05-09T19:48:04.345Z,10.04
2024-05-09T19:50:40.059Z,10.01
2024-05-09T19:53:12.557Z,9.95
2024-05-09T19:55:40.797Z,9.90
2024-05-09T19:58:09.293Z,9.86
2024-05-09T20:00:39.693Z,9.81
2024-05-09T20:03:10.707Z,9.76
2024-05-09T20:05:38.822Z,9.71
2024-05-09T20:08:07.614Z,9.65
2024-05-09T20:10:36.380Z,9.58
2024-05-09T20:13:06.276Z,9.52
2024-05-09T20:15:35.734Z,9.47
2024-05-09T20:18:04.034Z,9.40
2024-05-09T20:20:37.918Z,9.31
2024-05-09T20:23:10.087Z,9.24
2024-05-09T20:25:37.683Z,9.21
2024-05-09T20:28:05.931Z,9.18
2024-05-09T20:30:34.735Z,9.14
2024-05-09T20:33:04.425Z,9.10
2024-05-09T20:35:33.424Z,9.06
2024-05-09T20:38:01.820Z,9.01
2024-05-09T20:40:34.240Z,8.94
2024-05-09T20:43:05.980Z,8.86
2024-05-09T20:45:34.399Z,8.82
2024-05-09T20:48:02.455Z,8.76
2024-05-09T20:50:37.432Z,8.69
2024-05-09T20:53:09.210Z,8.64
2024-05-09T20:55:36.893Z,8.59
2024-05-09T20:58:05.150Z,8.55
2024-05-09T21:00:40.159Z,8.51
2024-05-09T21:03:12.145Z,8.47
2024-05-09T21:05:40.816Z,8.45
2024-05-09T21:08:08.820Z,8.44
2024-05-09T21:10:37.013Z,8.41
2024-05-09T21:13:06.066Z,8.35
2024-05-09T21:15:34.484Z,8.30
2024-05-09T21:18:02.197Z,8.27
2024-05-09T21:20:32.466Z,8.24
2024-05-09T21:23:01.299Z,8.19
2024-05-09T21:25:29.205Z,8.15
2024-05-09T21:27:56.781Z,8.11
2024-05-09T21:30:33.086Z,8.04
2024-05-09T21:33:09.899Z,8.00
2024-05-09T21:35:39.314Z,7.97
2024-05-09T21:38:07.378Z,7.92
2024-05-09T21:40:36.569Z,7.86
2024-05-09T21:43:06.461Z,7.78
2024-05-09T21:45:34.254Z,7.74
2024-05-09T21:48:05.616Z,7.73
2024-05-09T21:50:39.616Z,7.72
2024-05-09T21:53:10.791Z,7.69
2024-05-09T21:55:38.325Z,7.67
2024-05-09T21:58:05.866Z,7.65
2024-05-09T22:00:37.994Z,7.65
2024-05-09T22:03:07.273Z,7.66
2024-05-09T22:05:35.973Z,7.64
2024-05-09T22:08:03.808Z,7.62
2024-05-09T22:10:35.081Z,7.61
2024-05-09T22:13:05.764Z,7.61
2024-05-09T22:15:38.717Z,7.58
2024-05-09T22:18:08.575Z,7.53
2024-05-09T22:20:39.382Z,7.48
2024-05-09T22:23:08.473Z,7.46
2024-05-09T22:25:38.125Z,7.38
2024-05-09T22:28:06.156Z,7.43
2024-05-09T22:30:37.584Z,7.41
2024-05-09T22:33:08.444Z,7.38
2024-05-09T22:35:36.926Z,7.34
2024-05-09T22:38:05.628Z,7.31
2024-05-09T22:40:42.751Z,7.29
2024-05-09T22:43:23.863Z,7.24
2024-05-09T22:45:54.878Z,7.18
2024-05-09T22:48:24.554Z,7.16
2024-05-09T22:50:53.416Z,7.13
2024-05-09T22:53:24.735Z,7.09
2024-05-09T22:55:52.279Z,7.02
2024-05-09T22:58:20.637Z,6.97
2024-05-09T23:00:48.466Z,6.92
2024-05-09T23:03:16.545Z,6.91
2024-05-09T23:05:44.407Z,6.90
2024-05-09T23:08:11.826Z,6.86
2024-05-09T23:10:39.346Z,6.84
2024-05-09T23:13:07.805Z,6.85
2024-05-09T23:15:36.585Z,6.84
2024-05-09T23:18:04.862Z,6.83
2024-05-09T23:20:37.514Z,6.80
2024-05-09T23:23:07.947Z,6.77
2024-05-09T23:25:36.704Z,6.76
2024-05-09T23:28:05.437Z,6.75
2024-05-09T23:30:37.895Z,6.75
2024-05-09T23:33:09.849Z,6.72
2024-05-09T23:35:38.100Z,6.67
2024-05-09T23:38:05.532Z,6.64
2024-05-09T23:40:39.048Z,6.62
2024-05-09T23:43:10.036Z,6.61
2024-05-09T23:45:37.832Z,6.61
2024-05-09T23:48:06.263Z,6.61
2024-05-09T23:50:37.015Z,6.61
2024-05-09T23:53:07.953Z,6.61
2024-05-09T23:55:37.163Z,6.61
2024-05-09T23:58:06.300Z,6.56
